Royal, Illinois
Current Conditions -  °F | °C
As of 7:30 AM on Sunday 23 Nov 2014 (Local Time) from KTIP Reporting Station
Scattered Clouds Scattered Clouds  
Wind Chill: 42°   Ceiling: Unl
Heat Index: 47°   Visibility: 10mi
Dew Point: 43°   Wind: 10mph
Humidity: 87%   Direction: 150°SSE
Pressure: 29.78"   Gusts: NA
Location:  40.19°N, 87.97°W
Report Text: KTIP 231330Z AUTO 15009KT 10SM SCT095 SCT120 08/06 A2978 RMK AO2 T00830063
Loading
Personal Weather Stations






























Interactive Weather Map New forecast layout! Learn more

10-Day Weather Forecast

Advertisements
Track Severe Weather on mobile